sensor_id;sensor_type;location;lat;lon;timestamp;temperature;humidity
22177;DHT22;11254;50.098;8.726;2022-09-09T00:02:19;16.70;99.90
22177;DHT22;11254;50.098;8.726;2022-09-09T00:04:58;16.70;99.90
22177;DHT22;11254;50.098;8.726;2022-09-09T00:07:38;16.70;99.90
22177;DHT22;11254;50.098;8.726;2022-09-09T00:10:18;16.70;99.90
22177;DHT22;11254;50.098;8.726;2022-09-09T00:12:52;16.70;99.90
22177;DHT22;11254;50.098;8.726;2022-09-09T00:15:27;16.70;99.90
22177;DHT22;11254;50.098;8.726;2022-09-09T00:18:03;16.70;99.90
22177;DHT22;11254;50.098;8.726;2022-09-09T00:20:39;16.70;99.90
22177;DHT22;11254;50.098;8.726;2022-09-09T00:23:16;16.70;99.90
22177;DHT22;11254;50.098;8.726;2022-09-09T00:25:53;16.60;99.90
22177;DHT22;11254;50.098;8.726;2022-09-09T00:28:24;16.60;99.90
22177;DHT22;11254;50.098;8.726;2022-09-09T00:30:55;16.60;99.90
22177;DHT22;11254;50.098;8.726;2022-09-09T00:33:25;16.50;99.90
22177;DHT22;11254;50.098;8.726;2022-09-09T00:35:57;16.40;99.90
22177;DHT22;11254;50.098;8.726;2022-09-09T00:38:33;16.40;99.90
22177;DHT22;11254;50.098;8.726;2022-09-09T00:41:09;16.40;99.90
22177;DHT22;11254;50.098;8.726;2022-09-09T00:43:40;16.30;99.90
22177;DHT22;11254;50.098;8.726;2022-09-09T00:46:40;16.30;99.90
22177;DHT22;11254;50.098;8.726;2022-09-09T00:49:19;16.30;99.90
22177;DHT22;11254;50.098;8.726;2022-09-09T00:51:59;16.20;99.90
22177;DHT22;11254;50.098;8.726;2022-09-09T00:54:38;16.30;99.90
22177;DHT22;11254;50.098;8.726;2022-09-09T00:57:17;16.20;99.90
22177;DHT22;11254;50.098;8.726;2022-09-09T00:59:51;16.10;99.90
22177;DHT22;11254;50.098;8.726;2022-09-09T01:02:27;16.00;99.90
22177;DHT22;11254;50.098;8.726;2022-09-09T01:05:04;16.00;99.90
22177;DHT22;11254;50.098;8.726;2022-09-09T01:07:34;16.00;99.90
22177;DHT22;11254;50.098;8.726;2022-09-09T01:10:07;15.90;99.90
22177;DHT22;11254;50.098;8.726;2022-09-09T01:12:41;16.00;99.90
22177;DHT22;11254;50.098;8.726;2022-09-09T01:15:19;15.90;99.90
22177;DHT22;11254;50.098;8.726;2022-09-09T01:17:57;15.90;99.90
22177;DHT22;11254;50.098;8.726;2022-09-09T01:20:28;15.90;99.90
22177;DHT22;11254;50.098;8.726;2022-09-09T01:26:37;15.80;99.90
22177;DHT22;11254;50.098;8.726;2022-09-09T01:29:14;15.80;99.90
22177;DHT22;11254;50.098;8.726;2022-09-09T01:31:53;15.70;99.90
22177;DHT22;11254;50.098;8.726;2022-09-09T01:34:24;15.70;99.90
22177;DHT22;11254;50.098;8.726;2022-09-09T01:36:57;15.70;99.90
22177;DHT22;11254;50.098;8.726;2022-09-09T01:39:27;15.60;99.90
22177;DHT22;11254;50.098;8.726;2022-09-09T01:42:11;15.50;99.90
22177;DHT22;11254;50.098;8.726;2022-09-09T01:44:40;15.60;99.90
22177;DHT22;11254;50.098;8.726;2022-09-09T01:47:09;15.50;99.90
22177;DHT22;11254;50.098;8.726;2022-09-09T01:49:56;15.50;99.90
22177;DHT22;11254;50.098;8.726;2022-09-09T01:52:27;15.50;99.90
22177;DHT22;11254;50.098;8.726;2022-09-09T01:54:56;15.40;99.90
22177;DHT22;11254;50.098;8.726;2022-09-09T01:57:33;15.40;99.90
22177;DHT22;11254;50.098;8.726;2022-09-09T02:00:10;15.30;99.90
22177;DHT22;11254;50.098;8.726;2022-09-09T02:02:51;15.30;99.90
22177;DHT22;11254;50.098;8.726;2022-09-09T02:05:34;15.30;99.90
22177;DHT22;11254;50.098;8.726;2022-09-09T02:08:09;15.20;99.90
22177;DHT22;11254;50.098;8.726;2022-09-09T02:10:55;15.20;99.90
22177;DHT22;11254;50.098;8.726;2022-09-09T02:13:37;15.20;99.90
22177;DHT22;11254;50.098;8.726;2022-09-09T02:16:13;15.10;99.90
22177;DHT22;11254;50.098;8.726;2022-09-09T02:18:48;15.20;99.90
22177;DHT22;11254;50.098;8.726;2022-09-09T02:21:23;15.20;99.90
22177;DHT22;11254;50.098;8.726;2022-09-09T02:23:53;15.20;99.90
22177;DHT22;11254;50.098;8.726;2022-09-09T02:26:24;15.30;99.90
22177;DHT22;11254;50.098;8.726;2022-09-09T02:29:02;15.40;99.90
22177;DHT22;11254;50.098;8.726;2022-09-09T02:31:31;15.50;99.90
22177;DHT22;11254;50.098;8.726;2022-09-09T02:34:06;15.50;99.90
22177;DHT22;11254;50.098;8.726;2022-09-09T02:36:38;15.50;99.90
22177;DHT22;11254;50.098;8.726;2022-09-09T02:39:08;15.50;99.90
22177;DHT22;11254;50.098;8.726;2022-09-09T02:41:39;15.50;99.90
22177;DHT22;11254;50.098;8.726;2022-09-09T02:44:11;15.60;99.90
22177;DHT22;11254;50.098;8.726;2022-09-09T02:46:53;15.60;99.90
22177;DHT22;11254;50.098;8.726;2022-09-09T02:49:29;15.60;99.90
22177;DHT22;11254;50.098;8.726;2022-09-09T02:52:04;15.60;99.90
22177;DHT22;11254;50.098;8.726;2022-09-09T02:54:37;15.70;99.90
22177;DHT22;11254;50.098;8.726;2022-09-09T02:57:12;15.70;99.90
22177;DHT22;11254;50.098;8.726;2022-09-09T02:59:46;15.70;99.90
22177;DHT22;11254;50.098;8.726;2022-09-09T03:02:15;15.80;99.90
22177;DHT22;11254;50.098;8.726;2022-09-09T03:04:49;15.80;99.90
22177;DHT22;11254;50.098;8.726;2022-09-09T03:07:19;15.90;99.90
22177;DHT22;11254;50.098;8.726;2022-09-09T03:09:49;15.90;99.90
22177;DHT22;11254;50.098;8.726;2022-09-09T03:12:17;15.90;99.90
22177;DHT22;11254;50.098;8.726;2022-09-09T03:14:46;15.90;99.90
22177;DHT22;11254;50.098;8.726;2022-09-09T03:17:15;15.90;99.90
22177;DHT22;11254;50.098;8.726;2022-09-09T03:19:50;15.90;99.90
22177;DHT22;11254;50.098;8.726;2022-09-09T03:22:19;15.90;99.90
22177;DHT22;11254;50.098;8.726;2022-09-09T03:24:48;16.00;99.90
22177;DHT22;11254;50.098;8.726;2022-09-09T03:27:16;15.90;99.90
22177;DHT22;11254;50.098;8.726;2022-09-09T03:29:47;15.80;99.90
22177;DHT22;11254;50.098;8.726;2022-09-09T03:32:22;15.80;99.90
22177;DHT22;11254;50.098;8.726;2022-09-09T03:34:53;15.80;99.90
22177;DHT22;11254;50.098;8.726;2022-09-09T03:37:21;15.70;99.90
22177;DHT22;11254;50.098;8.726;2022-09-09T03:39:50;15.60;99.90
22177;DHT22;11254;50.098;8.726;2022-09-09T03:42:21;15.60;99.90
22177;DHT22;11254;50.098;8.726;2022-09-09T03:44:54;15.60;99.90
22177;DHT22;11254;50.098;8.726;2022-09-09T03:47:25;15.50;99.90
22177;DHT22;11254;50.098;8.726;2022-09-09T03:49:59;15.60;99.90
22177;DHT22;11254;50.098;8.726;2022-09-09T03:52:28;15.60;99.90
22177;DHT22;11254;50.098;8.726;2022-09-09T03:54:56;15.60;99.90
22177;DHT22;11254;50.098;8.726;2022-09-09T03:57:24;15.60;99.90
22177;DHT22;11254;50.098;8.726;2022-09-09T03:59:54;15.60;99.90
22177;DHT22;11254;50.098;8.726;2022-09-09T04:02:22;15.70;99.90
22177;DHT22;11254;50.098;8.726;2022-09-09T04:04:50;15.80;99.90
22177;DHT22;11254;50.098;8.726;2022-09-09T04:07:18;15.80;99.90
22177;DHT22;11254;50.098;8.726;2022-09-09T04:09:46;15.80;99.90
22177;DHT22;11254;50.098;8.726;2022-09-09T04:12:14;15.80;99.90
22177;DHT22;11254;50.098;8.726;2022-09-09T04:14:43;15.80;99.90
22177;DHT22;11254;50.098;8.726;2022-09-09T04:17:12;15.80;99.90
22177;DHT22;11254;50.098;8.726;2022-09-09T04:19:40;15.80;99.90
22177;DHT22;11254;50.098;8.726;2022-09-09T04:22:10;15.80;99.90
22177;DHT22;11254;50.098;8.726;2022-09-09T04:24:37;15.70;99.90
22177;DHT22;11254;50.098;8.726;2022-09-09T04:27:06;15.60;99.90
22177;DHT22;11254;50.098;8.726;2022-09-09T04:29:36;15.50;99.90
22177;DHT22;11254;50.098;8.726;2022-09-09T04:32:05;15.50;99.90
22177;DHT22;11254;50.098;8.726;2022-09-09T04:34:34;15.40;99.90
22177;DHT22;11254;50.098;8.726;2022-09-09T04:37:02;15.50;99.90
22177;DHT22;11254;50.098;8.726;2022-09-09T04:39:31;15.60;99.90
22177;DHT22;11254;50.098;8.726;2022-09-09T04:42:00;15.50;99.90
22177;DHT22;11254;50.098;8.726;2022-09-09T04:44:28;15.50;99.90
22177;DHT22;11254;50.098;8.726;2022-09-09T04:46:56;15.50;99.90
22177;DHT22;11254;50.098;8.726;2022-09-09T04:49:25;15.60;99.90
22177;DHT22;11254;50.098;8.726;2022-09-09T04:51:55;15.60;99.90
22177;DHT22;11254;50.098;8.726;2022-09-09T04:54:23;15.60;99.90
22177;DHT22;11254;50.098;8.726;2022-09-09T04:56:52;15.60;99.90
22177;DHT22;11254;50.098;8.726;2022-09-09T04:59:21;15.60;99.90
22177;DHT22;11254;50.098;8.726;2022-09-09T05:01:54;15.70;99.90
22177;DHT22;11254;50.098;8.726;2022-09-09T05:04:22;15.70;99.90
22177;DHT22;11254;50.098;8.726;2022-09-09T05:06:50;15.80;99.90
22177;DHT22;11254;50.098;8.726;2022-09-09T05:09:19;15.80;99.90
22177;DHT22;11254;50.098;8.726;2022-09-09T05:11:47;15.90;99.90
22177;DHT22;11254;50.098;8.726;2022-09-09T05:14:31;16.00;99.90
22177;DHT22;11254;50.098;8.726;2022-09-09T05:17:01;16.10;99.90
22177;DHT22;11254;50.098;8.726;2022-09-09T05:19:29;16.10;99.90
22177;DHT22;11254;50.098;8.726;2022-09-09T05:21:57;16.20;99.90
22177;DHT22;11254;50.098;8.726;2022-09-09T05:24:35;16.20;99.90
22177;DHT22;11254;50.098;8.726;2022-09-09T05:27:04;16.30;99.90
22177;DHT22;11254;50.098;8.726;2022-09-09T05:29:33;16.30;99.90
22177;DHT22;11254;50.098;8.726;2022-09-09T05:32:03;16.30;99.90
22177;DHT22;11254;50.098;8.726;2022-09-09T05:34:34;16.30;99.90
22177;DHT22;11254;50.098;8.726;2022-09-09T05:37:02;16.30;99.90
22177;DHT22;11254;50.098;8.726;2022-09-09T05:39:31;16.40;99.90
22177;DHT22;11254;50.098;8.726;2022-09-09T05:42:02;16.40;99.90
22177;DHT22;11254;50.098;8.726;2022-09-09T05:44:32;16.40;99.90
22177;DHT22;11254;50.098;8.726;2022-09-09T05:47:01;16.50;99.90
22177;DHT22;11254;50.098;8.726;2022-09-09T05:49:29;16.50;99.90
22177;DHT22;11254;50.098;8.726;2022-09-09T05:51:58;16.50;99.90
22177;DHT22;11254;50.098;8.726;2022-09-09T05:54:26;16.60;99.90
22177;DHT22;11254;50.098;8.726;2022-09-09T05:56:54;16.70;99.90
22177;DHT22;11254;50.098;8.726;2022-09-09T05:59:24;17.00;99.90
22177;DHT22;11254;50.098;8.726;2022-09-09T06:01:54;17.00;99.90
22177;DHT22;11254;50.098;8.726;2022-09-09T06:04:28;17.00;99.90
22177;DHT22;11254;50.098;8.726;2022-09-09T06:06:59;17.10;99.90
22177;DHT22;11254;50.098;8.726;2022-09-09T06:09:27;17.10;99.90
22177;DHT22;11254;50.098;8.726;2022-09-09T06:11:57;17.20;99.90
22177;DHT22;11254;50.098;8.726;2022-09-09T06:14:27;17.30;99.90
22177;DHT22;11254;50.098;8.726;2022-09-09T06:16:58;17.40;99.90
22177;DHT22;11254;50.098;8.726;2022-09-09T06:19:29;17.40;99.90
22177;DHT22;11254;50.098;8.726;2022-09-09T06:21:58;17.50;99.90
22177;DHT22;11254;50.098;8.726;2022-09-09T06:24:28;17.50;99.90
22177;DHT22;11254;50.098;8.726;2022-09-09T06:26:57;17.60;99.90
22177;DHT22;11254;50.098;8.726;2022-09-09T06:29:30;17.60;99.90
22177;DHT22;11254;50.098;8.726;2022-09-09T06:31:58;17.70;99.90
22177;DHT22;11254;50.098;8.726;2022-09-09T06:34:27;17.80;99.90
22177;DHT22;11254;50.098;8.726;2022-09-09T06:36:57;17.90;99.90
22177;DHT22;11254;50.098;8.726;2022-09-09T06:39:30;18.00;99.90
22177;DHT22;11254;50.098;8.726;2022-09-09T06:41:58;18.20;99.90
22177;DHT22;11254;50.098;8.726;2022-09-09T06:44:47;18.40;99.90
22177;DHT22;11254;50.098;8.726;2022-09-09T06:47:22;18.50;99.90
22177;DHT22;11254;50.098;8.726;2022-09-09T06:49:51;18.70;99.90
22177;DHT22;11254;50.098;8.726;2022-09-09T06:52:19;18.90;99.90
22177;DHT22;11254;50.098;8.726;2022-09-09T06:54:47;18.90;99.90
22177;DHT22;11254;50.098;8.726;2022-09-09T06:57:16;18.90;99.90
22177;DHT22;11254;50.098;8.726;2022-09-09T07:00:06;18.90;99.90
22177;DHT22;11254;50.098;8.726;2022-09-09T07:02:35;19.10;99.90
22177;DHT22;11254;50.098;8.726;2022-09-09T07:05:08;19.20;99.90
22177;DHT22;11254;50.098;8.726;2022-09-09T07:07:37;19.30;99.90
22177;DHT22;11254;50.098;8.726;2022-09-09T07:10:06;19.30;99.90
22177;DHT22;11254;50.098;8.726;2022-09-09T07:12:36;19.40;99.90
22177;DHT22;11254;50.098;8.726;2022-09-09T07:15:07;19.70;99.90
22177;DHT22;11254;50.098;8.726;2022-09-09T07:17:35;20.00;99.90
22177;DHT22;11254;50.098;8.726;2022-09-09T07:20:04;19.80;99.90
22177;DHT22;11254;50.098;8.726;2022-09-09T07:22:33;19.70;99.90
22177;DHT22;11254;50.098;8.726;2022-09-09T07:25:02;19.60;99.90
22177;DHT22;11254;50.098;8.726;2022-09-09T07:27:30;19.50;99.90
22177;DHT22;11254;50.098;8.726;2022-09-09T07:29:58;19.40;99.90
22177;DHT22;11254;50.098;8.726;2022-09-09T07:32:27;19.20;99.90
22177;DHT22;11254;50.098;8.726;2022-09-09T07:34:57;19.00;99.90
22177;DHT22;11254;50.098;8.726;2022-09-09T07:37:27;18.70;99.90
22177;DHT22;11254;50.098;8.726;2022-09-09T07:39:55;18.50;99.90
22177;DHT22;11254;50.098;8.726;2022-09-09T07:42:23;18.50;99.90
22177;DHT22;11254;50.098;8.726;2022-09-09T07:44:52;18.50;99.90
22177;DHT22;11254;50.098;8.726;2022-09-09T07:47:21;18.60;99.90
22177;DHT22;11254;50.098;8.726;2022-09-09T07:49:52;18.70;99.90
22177;DHT22;11254;50.098;8.726;2022-09-09T07:52:26;18.70;99.90
22177;DHT22;11254;50.098;8.726;2022-09-09T07:54:58;18.80;99.90
22177;DHT22;11254;50.098;8.726;2022-09-09T07:57:28;18.90;99.90
22177;DHT22;11254;50.098;8.726;2022-09-09T07:59:57;19.10;99.90
22177;DHT22;11254;50.098;8.726;2022-09-09T08:02:25;19.30;99.90
22177;DHT22;11254;50.098;8.726;2022-09-09T08:04:57;19.20;99.90
22177;DHT22;11254;50.098;8.726;2022-09-09T08:07:25;19.40;99.90
22177;DHT22;11254;50.098;8.726;2022-09-09T08:09:54;19.40;99.90
22177;DHT22;11254;50.098;8.726;2022-09-09T08:12:27;19.40;99.90
22177;DHT22;11254;50.098;8.726;2022-09-09T08:14:56;19.40;99.90
22177;DHT22;11254;50.098;8.726;2022-09-09T08:17:27;19.40;99.90
22177;DHT22;11254;50.098;8.726;2022-09-09T08:19:59;19.40;99.90
22177;DHT22;11254;50.098;8.726;2022-09-09T08:22:30;19.50;99.90
22177;DHT22;11254;50.098;8.726;2022-09-09T08:24:58;19.70;99.90
22177;DHT22;11254;50.098;8.726;2022-09-09T08:27:27;20.10;99.90
22177;DHT22;11254;50.098;8.726;2022-09-09T08:29:55;20.40;99.90
22177;DHT22;11254;50.098;8.726;2022-09-09T08:32:23;20.70;99.90
22177;DHT22;11254;50.098;8.726;2022-09-09T08:34:51;20.90;99.90
22177;DHT22;11254;50.098;8.726;2022-09-09T08:37:24;21.10;99.90
22177;DHT22;11254;50.098;8.726;2022-09-09T08:39:52;21.20;99.90
22177;DHT22;11254;50.098;8.726;2022-09-09T08:42:30;21.60;99.90
22177;DHT22;11254;50.098;8.726;2022-09-09T08:45:21;21.70;99.90
22177;DHT22;11254;50.098;8.726;2022-09-09T08:48:09;21.30;99.90
22177;DHT22;11254;50.098;8.726;2022-09-09T08:50:42;21.00;99.90
22177;DHT22;11254;50.098;8.726;2022-09-09T08:53:19;21.10;99.90
22177;DHT22;11254;50.098;8.726;2022-09-09T08:55:51;21.20;99.90
22177;DHT22;11254;50.098;8.726;2022-09-09T08:58:29;21.10;99.90
22177;DHT22;11254;50.098;8.726;2022-09-09T09:01:12;21.30;99.90
22177;DHT22;11254;50.098;8.726;2022-09-09T09:03:53;21.20;99.90
22177;DHT22;11254;50.098;8.726;2022-09-09T09:06:33;21.00;99.90
22177;DHT22;11254;50.098;8.726;2022-09-09T09:09:17;20.80;99.90
22177;DHT22;11254;50.098;8.726;2022-09-09T09:11:49;20.80;99.90
22177;DHT22;11254;50.098;8.726;2022-09-09T09:14:20;20.50;99.90
22177;DHT22;11254;50.098;8.726;2022-09-09T09:16:55;20.70;99.90
22177;DHT22;11254;50.098;8.726;2022-09-09T09:19:27;20.60;99.90
22177;DHT22;11254;50.098;8.726;2022-09-09T09:21:59;20.60;99.90
22177;DHT22;11254;50.098;8.726;2022-09-09T09:24:41;20.80;99.90
22177;DHT22;11254;50.098;8.726;2022-09-09T09:27:13;21.20;99.90
22177;DHT22;11254;50.098;8.726;2022-09-09T09:29:46;21.70;99.50
22177;DHT22;11254;50.098;8.726;2022-09-09T09:32:36;22.30;98.10
22177;DHT22;11254;50.098;8.726;2022-09-09T09:35:12;22.40;99.40
22177;DHT22;11254;50.098;8.726;2022-09-09T09:37:41;21.90;99.90
22177;DHT22;11254;50.098;8.726;2022-09-09T09:40:32;21.80;99.90
22177;DHT22;11254;50.098;8.726;2022-09-09T09:43:02;21.40;99.90
22177;DHT22;11254;50.098;8.726;2022-09-09T09:45:41;21.30;99.90
22177;DHT22;11254;50.098;8.726;2022-09-09T09:48:31;20.90;99.90
22177;DHT22;11254;50.098;8.726;2022-09-09T09:51:02;20.50;99.90
22177;DHT22;11254;50.098;8.726;2022-09-09T09:53:36;20.20;99.90
22177;DHT22;11254;50.098;8.726;2022-09-09T09:56:09;20.10;99.90
22177;DHT22;11254;50.098;8.726;2022-09-09T09:58:50;19.60;99.90
22177;DHT22;11254;50.098;8.726;2022-09-09T10:01:27;18.70;99.90
22177;DHT22;11254;50.098;8.726;2022-09-09T10:03:59;18.10;99.90
22177;DHT22;11254;50.098;8.726;2022-09-09T10:06:30;17.60;99.90
22177;DHT22;11254;50.098;8.726;2022-09-09T10:09:00;17.60;99.90
22177;DHT22;11254;50.098;8.726;2022-09-09T10:11:38;17.80;99.90
22177;DHT22;11254;50.098;8.726;2022-09-09T10:14:15;18.00;99.90
22177;DHT22;11254;50.098;8.726;2022-09-09T10:16:55;18.20;99.90
22177;DHT22;11254;50.098;8.726;2022-09-09T10:19:30;18.30;99.90
22177;DHT22;11254;50.098;8.726;2022-09-09T10:22:08;18.50;99.90
22177;DHT22;11254;50.098;8.726;2022-09-09T10:27:38;20.40;99.90
22177;DHT22;11254;50.098;8.726;2022-09-09T10:30:14;21.70;99.90
22177;DHT22;11254;50.098;8.726;2022-09-09T10:32:48;23.10;99.90
22177;DHT22;11254;50.098;8.726;2022-09-09T10:35:29;23.20;99.90
22177;DHT22;11254;50.098;8.726;2022-09-09T10:38:16;23.00;99.90
22177;DHT22;11254;50.098;8.726;2022-09-09T10:40:58;22.50;99.90
22177;DHT22;11254;50.098;8.726;2022-09-09T10:43:51;22.40;99.90
22177;DHT22;11254;50.098;8.726;2022-09-09T10:46:34;22.40;99.90
22177;DHT22;11254;50.098;8.726;2022-09-09T10:49:15;22.30;99.90
22177;DHT22;11254;50.098;8.726;2022-09-09T10:51:55;22.10;99.90
22177;DHT22;11254;50.098;8.726;2022-09-09T10:54:31;22.20;99.90
22177;DHT22;11254;50.098;8.726;2022-09-09T10:57:10;22.20;99.90
22177;DHT22;11254;50.098;8.726;2022-09-09T10:59:47;21.60;99.90
22177;DHT22;11254;50.098;8.726;2022-09-09T11:02:21;21.20;99.90
22177;DHT22;11254;50.098;8.726;2022-09-09T11:04:56;20.70;99.90
22177;DHT22;11254;50.098;8.726;2022-09-09T11:07:29;20.40;99.90
22177;DHT22;11254;50.098;8.726;2022-09-09T11:10:03;20.10;99.90
22177;DHT22;11254;50.098;8.726;2022-09-09T11:12:37;20.10;99.90
22177;DHT22;11254;50.098;8.726;2022-09-09T11:15:15;20.10;99.90
22177;DHT22;11254;50.098;8.726;2022-09-09T11:17:47;20.50;99.90
22177;DHT22;11254;50.098;8.726;2022-09-09T11:20:17;21.10;99.90
22177;DHT22;11254;50.098;8.726;2022-09-09T11:22:50;21.30;99.90
22177;DHT22;11254;50.098;8.726;2022-09-09T11:25:23;21.30;99.90
22177;DHT22;11254;50.098;8.726;2022-09-09T11:28:06;21.40;99.90
22177;DHT22;11254;50.098;8.726;2022-09-09T11:30:47;21.60;99.90
22177;DHT22;11254;50.098;8.726;2022-09-09T11:33:41;22.10;99.90
22177;DHT22;11254;50.098;8.726;2022-09-09T11:36:33;22.20;99.90
22177;DHT22;11254;50.098;8.726;2022-09-09T11:39:19;22.20;99.90
22177;DHT22;11254;50.098;8.726;2022-09-09T11:41:49;22.30;99.90
22177;DHT22;11254;50.098;8.726;2022-09-09T11:44:29;22.30;99.90
22177;DHT22;11254;50.098;8.726;2022-09-09T11:46:59;22.40;99.90
22177;DHT22;11254;50.098;8.726;2022-09-09T11:49:29;22.30;99.90
22177;DHT22;11254;50.098;8.726;2022-09-09T11:51:59;22.20;99.90
22177;DHT22;11254;50.098;8.726;2022-09-09T11:54:30;21.90;99.90
22177;DHT22;11254;50.098;8.726;2022-09-09T11:56:58;21.70;99.90
22177;DHT22;11254;50.098;8.726;2022-09-09T11:59:28;21.50;99.90
22177;DHT22;11254;50.098;8.726;2022-09-09T12:02:00;21.30;99.90
22177;DHT22;11254;50.098;8.726;2022-09-09T12:04:32;21.20;99.90
22177;DHT22;11254;50.098;8.726;2022-09-09T12:07:03;21.20;99.90
22177;DHT22;11254;50.098;8.726;2022-09-09T12:09:47;21.10;99.90
22177;DHT22;11254;50.098;8.726;2022-09-09T12:12:29;21.20;99.90
22177;DHT22;11254;50.098;8.726;2022-09-09T12:15:02;21.50;99.90
22177;DHT22;11254;50.098;8.726;2022-09-09T12:17:40;21.70;99.90
22177;DHT22;11254;50.098;8.726;2022-09-09T12:20:14;21.90;99.50
22177;DHT22;11254;50.098;8.726;2022-09-09T12:22:57;21.90;99.90
22177;DHT22;11254;50.098;8.726;2022-09-09T12:25:35;21.80;99.90
22177;DHT22;11254;50.098;8.726;2022-09-09T12:28:10;21.90;99.90
22177;DHT22;11254;50.098;8.726;2022-09-09T12:30:44;21.80;99.90
22177;DHT22;11254;50.098;8.726;2022-09-09T12:33:18;22.00;99.90
22177;DHT22;11254;50.098;8.726;2022-09-09T12:35:55;22.10;99.70
22177;DHT22;11254;50.098;8.726;2022-09-09T12:38:31;22.20;99.20
22177;DHT22;11254;50.098;8.726;2022-09-09T12:41:00;21.90;98.70
22177;DHT22;11254;50.098;8.726;2022-09-09T12:43:29;21.60;99.90
22177;DHT22;11254;50.098;8.726;2022-09-09T12:45:59;21.30;99.90
22177;DHT22;11254;50.098;8.726;2022-09-09T12:48:33;20.90;99.90
22177;DHT22;11254;50.098;8.726;2022-09-09T12:51:16;20.50;99.90
22177;DHT22;11254;50.098;8.726;2022-09-09T12:53:46;20.20;99.90
22177;DHT22;11254;50.098;8.726;2022-09-09T12:56:20;19.60;99.90
22177;DHT22;11254;50.098;8.726;2022-09-09T12:58:49;18.70;99.90
22177;DHT22;11254;50.098;8.726;2022-09-09T13:01:23;17.90;99.90
22177;DHT22;11254;50.098;8.726;2022-09-09T13:03:54;17.50;99.90
22177;DHT22;11254;50.098;8.726;2022-09-09T13:06:24;17.30;99.90
22177;DHT22;11254;50.098;8.726;2022-09-09T13:08:56;17.50;99.90
22177;DHT22;11254;50.098;8.726;2022-09-09T13:11:27;17.80;99.90
22177;DHT22;11254;50.098;8.726;2022-09-09T13:13:57;18.00;99.90
22177;DHT22;11254;50.098;8.726;2022-09-09T13:16:27;18.10;99.90
22177;DHT22;11254;50.098;8.726;2022-09-09T13:19:02;18.30;99.90
22177;DHT22;11254;50.098;8.726;2022-09-09T13:21:36;18.50;99.90
22177;DHT22;11254;50.098;8.726;2022-09-09T13:24:05;18.80;99.90
22177;DHT22;11254;50.098;8.726;2022-09-09T13:26:34;19.00;99.90
22177;DHT22;11254;50.098;8.726;2022-09-09T13:29:16;19.30;99.90
22177;DHT22;11254;50.098;8.726;2022-09-09T13:31:45;19.50;99.90
22177;DHT22;11254;50.098;8.726;2022-09-09T13:34:27;19.50;99.90
22177;DHT22;11254;50.098;8.726;2022-09-09T13:36:58;19.50;99.90
22177;DHT22;11254;50.098;8.726;2022-09-09T13:39:28;19.60;99.90
22177;DHT22;11254;50.098;8.726;2022-09-09T13:41:56;19.60;99.90
22177;DHT22;11254;50.098;8.726;2022-09-09T13:44:27;19.60;99.90
22177;DHT22;11254;50.098;8.726;2022-09-09T13:47:03;19.70;99.90
22177;DHT22;11254;50.098;8.726;2022-09-09T13:49:37;19.90;99.90
22177;DHT22;11254;50.098;8.726;2022-09-09T13:52:09;20.30;99.90
22177;DHT22;11254;50.098;8.726;2022-09-09T13:54:38;20.60;99.90
22177;DHT22;11254;50.098;8.726;2022-09-09T13:57:15;20.80;99.90
22177;DHT22;11254;50.098;8.726;2022-09-09T13:59:45;21.10;99.90
22177;DHT22;11254;50.098;8.726;2022-09-09T14:02:31;21.30;99.90
22177;DHT22;11254;50.098;8.726;2022-09-09T14:05:00;21.40;99.90
22177;DHT22;11254;50.098;8.726;2022-09-09T14:07:28;21.50;99.90
22177;DHT22;11254;50.098;8.726;2022-09-09T14:09:56;21.40;99.90
22177;DHT22;11254;50.098;8.726;2022-09-09T14:12:26;21.20;99.90
22177;DHT22;11254;50.098;8.726;2022-09-09T14:14:54;20.90;99.90
22177;DHT22;11254;50.098;8.726;2022-09-09T14:17:22;20.60;99.90
22177;DHT22;11254;50.098;8.726;2022-09-09T14:19:51;20.40;99.90
22177;DHT22;11254;50.098;8.726;2022-09-09T14:22:21;20.00;99.90
22177;DHT22;11254;50.098;8.726;2022-09-09T14:24:49;19.70;99.90
22177;DHT22;11254;50.098;8.726;2022-09-09T14:27:17;19.40;99.90
22177;DHT22;11254;50.098;8.726;2022-09-09T14:29:45;19.10;99.90
22177;DHT22;11254;50.098;8.726;2022-09-09T14:32:13;19.00;99.90
22177;DHT22;11254;50.098;8.726;2022-09-09T14:34:42;19.00;99.90
22177;DHT22;11254;50.098;8.726;2022-09-09T14:37:10;19.00;99.90
22177;DHT22;11254;50.098;8.726;2022-09-09T14:39:40;19.00;99.90
22177;DHT22;11254;50.098;8.726;2022-09-09T14:42:10;19.10;99.90
22177;DHT22;11254;50.098;8.726;2022-09-09T14:44:38;19.20;99.90
22177;DHT22;11254;50.098;8.726;2022-09-09T14:47:08;19.30;99.90
22177;DHT22;11254;50.098;8.726;2022-09-09T14:49:36;19.50;99.90
22177;DHT22;11254;50.098;8.726;2022-09-09T14:52:08;19.60;99.90
22177;DHT22;11254;50.098;8.726;2022-09-09T14:54:36;19.70;99.90
22177;DHT22;11254;50.098;8.726;2022-09-09T14:57:06;19.80;99.90
22177;DHT22;11254;50.098;8.726;2022-09-09T14:59:34;19.90;99.90
22177;DHT22;11254;50.098;8.726;2022-09-09T15:02:03;20.00;99.90
22177;DHT22;11254;50.098;8.726;2022-09-09T15:04:31;20.10;99.90
22177;DHT22;11254;50.098;8.726;2022-09-09T15:07:00;20.10;99.90
22177;DHT22;11254;50.098;8.726;2022-09-09T15:09:28;20.10;99.90
22177;DHT22;11254;50.098;8.726;2022-09-09T15:11:56;20.00;99.90
22177;DHT22;11254;50.098;8.726;2022-09-09T15:14:25;20.00;99.90
22177;DHT22;11254;50.098;8.726;2022-09-09T15:16:54;19.90;99.90
22177;DHT22;11254;50.098;8.726;2022-09-09T15:19:22;19.80;99.90
22177;DHT22;11254;50.098;8.726;2022-09-09T15:21:50;19.70;99.90
22177;DHT22;11254;50.098;8.726;2022-09-09T15:24:18;19.60;99.90
22177;DHT22;11254;50.098;8.726;2022-09-09T15:26:46;19.60;99.90
22177;DHT22;11254;50.098;8.726;2022-09-09T15:29:14;19.60;99.90
22177;DHT22;11254;50.098;8.726;2022-09-09T15:31:44;19.60;99.90
22177;DHT22;11254;50.098;8.726;2022-09-09T15:34:13;19.50;99.90
22177;DHT22;11254;50.098;8.726;2022-09-09T15:36:43;19.60;99.90
22177;DHT22;11254;50.098;8.726;2022-09-09T15:39:14;19.60;99.90
22177;DHT22;11254;50.098;8.726;2022-09-09T15:41:44;19.80;99.90
22177;DHT22;11254;50.098;8.726;2022-09-09T15:44:14;19.80;99.90
22177;DHT22;11254;50.098;8.726;2022-09-09T15:46:45;19.90;99.90
22177;DHT22;11254;50.098;8.726;2022-09-09T15:49:15;19.90;99.90
22177;DHT22;11254;50.098;8.726;2022-09-09T15:51:46;20.10;99.90
22177;DHT22;11254;50.098;8.726;2022-09-09T15:54:16;20.30;99.90
22177;DHT22;11254;50.098;8.726;2022-09-09T15:56:46;20.40;99.90
22177;DHT22;11254;50.098;8.726;2022-09-09T15:59:15;20.40;99.90
22177;DHT22;11254;50.098;8.726;2022-09-09T16:01:44;20.20;99.90
22177;DHT22;11254;50.098;8.726;2022-09-09T16:04:13;20.00;99.90
22177;DHT22;11254;50.098;8.726;2022-09-09T16:06:42;19.90;99.90
22177;DHT22;11254;50.098;8.726;2022-09-09T16:09:11;19.70;99.90
22177;DHT22;11254;50.098;8.726;2022-09-09T16:11:39;19.60;99.90